createdAt,value
2022-10-05T00:02:26.435Z,2.55
2022-10-05T00:04:55.680Z,2.88
2022-10-05T00:07:24.048Z,2.60
2022-10-05T00:09:58.265Z,3.00
2022-10-05T00:12:26.575Z,2.65
2022-10-05T00:14:56.335Z,3.00
2022-10-05T00:17:25.458Z,3.00
2022-10-05T00:19:52.993Z,2.70
2022-10-05T00:22:29.434Z,2.95
2022-10-05T00:24:58.629Z,2.60
2022-10-05T00:27:33.167Z,2.80
2022-10-05T00:30:01.556Z,2.90
2022-10-05T00:32:28.328Z,2.45
2022-10-05T00:34:57.290Z,2.60
2022-10-05T00:37:23.990Z,3.20
2022-10-05T00:39:50.734Z,2.83
2022-10-05T00:42:34.603Z,3.00
2022-10-05T00:45:14.116Z,2.78
2022-10-05T00:47:43.838Z,2.58
2022-10-05T00:50:28.925Z,2.78
2022-10-05T00:53:10.720Z,3.25
2022-10-05T00:55:59.697Z,2.60
2022-10-05T00:58:43.556Z,2.78
2022-10-05T01:01:15.849Z,3.00
2022-10-05T01:04:05.346Z,2.75
2022-10-05T01:07:16.245Z,2.70
2022-10-05T01:10:05.736Z,2.92
2022-10-05T01:12:50.386Z,3.22
2022-10-05T01:15:35.327Z,3.08
2022-10-05T01:18:31.351Z,2.83
2022-10-05T01:21:13.643Z,3.20
2022-10-05T01:24:01.644Z,3.35
2022-10-05T01:26:59.497Z,2.80
2022-10-05T01:29:38.175Z,3.25
2022-10-05T01:32:09.251Z,2.83
2022-10-05T01:34:42.400Z,3.35
2022-10-05T01:37:19.125Z,2.78
2022-10-05T01:40:12.785Z,3.33
2022-10-05T01:42:49.219Z,3.40
2022-10-05T01:45:21.932Z,3.10
2022-10-05T01:47:50.309Z,3.17
2022-10-05T01:50:29.939Z,3.15
2022-10-05T01:53:20.423Z,3.17
2022-10-05T01:55:56.551Z,2.97
2022-10-05T01:58:39.857Z,2.88
2022-10-05T02:01:18.245Z,3.22
2022-10-05T02:03:53.569Z,3.10
2022-10-05T02:06:24.082Z,2.63
2022-10-05T02:09:11.889Z,3.33
2022-10-05T02:11:44.209Z,2.80
2022-10-05T02:14:13.297Z,2.88
2022-10-05T02:16:41.996Z,3.30
2022-10-05T02:19:16.211Z,2.88
2022-10-05T02:21:47.371Z,2.92
2022-10-05T02:24:21.718Z,3.03
2022-10-05T02:26:51.245Z,2.65
2022-10-05T02:29:21.785Z,3.00
2022-10-05T02:31:53.301Z,2.63
2022-10-05T02:34:46.600Z,3.05
2022-10-05T02:37:29.917Z,3.00
2022-10-05T02:40:18.664Z,3.85
2022-10-05T02:43:09.223Z,2.83
2022-10-05T02:45:44.980Z,2.88
2022-10-05T02:48:27.342Z,2.97
2022-10-05T02:51:03.082Z,2.50
2022-10-05T02:53:39.925Z,2.88
2022-10-05T02:56:15.639Z,2.90
2022-10-05T02:58:50.127Z,2.95
2022-10-05T03:01:29.588Z,2.85
2022-10-05T03:04:07.888Z,3.22
2022-10-05T03:06:50.073Z,2.60
2022-10-05T03:09:17.919Z,3.35
2022-10-05T03:11:59.114Z,2.65
2022-10-05T03:14:27.126Z,2.80
2022-10-05T03:17:11.974Z,3.00
2022-10-05T03:19:54.785Z,3.15
2022-10-05T03:22:27.858Z,3.20
2022-10-05T03:25:18.427Z,3.42
2022-10-05T03:28:04.367Z,3.15
2022-10-05T03:31:03.488Z,3.30
2022-10-05T03:33:46.797Z,3.55
2022-10-05T03:36:30.666Z,3.20
2022-10-05T03:39:04.307Z,2.90
2022-10-05T03:41:43.098Z,3.08
2022-10-05T03:44:25.624Z,3.17
2022-10-05T03:47:07.627Z,3.22
2022-10-05T03:49:59.199Z,3.53
2022-10-05T03:52:45.833Z,2.85
2022-10-05T03:55:31.609Z,3.83
2022-10-05T03:58:03.740Z,3.10
2022-10-05T04:00:31.413Z,3.35
2022-10-05T04:03:08.043Z,3.00
2022-10-05T04:06:19.334Z,3.00
2022-10-05T04:09:00.759Z,3.28
2022-10-05T04:11:35.138Z,3.10
2022-10-05T04:14:10.531Z,2.92
2022-10-05T04:16:45.405Z,3.67
2022-10-05T04:19:19.064Z,3.33
2022-10-05T04:21:52.463Z,3.08
2022-10-05T04:24:26.470Z,3.65
2022-10-05T04:27:00.021Z,3.25
2022-10-05T04:29:33.874Z,3.08
2022-10-05T04:32:19.756Z,3.10
2022-10-05T04:34:49.500Z,3.03
2022-10-05T04:37:32.742Z,3.22
2022-10-05T04:40:08.799Z,3.00
2022-10-05T04:42:46.665Z,3.17
2022-10-05T04:45:39.186Z,4.28
2022-10-05T04:48:35.515Z,3.50
2022-10-05T04:51:17.637Z,3.40
2022-10-05T04:53:54.689Z,3.17
2022-10-05T04:56:31.228Z,3.03
2022-10-05T04:59:17.631Z,3.47
2022-10-05T05:01:47.236Z,3.05
2022-10-05T05:04:17.181Z,3.30
2022-10-05T05:06:53.541Z,3.10
2022-10-05T05:09:42.020Z,3.50
2022-10-05T05:12:13.796Z,3.10
2022-10-05T05:15:18.209Z,3.13
2022-10-05T05:17:59.775Z,3.22
2022-10-05T05:21:04.727Z,3.22
2022-10-05T05:23:50.996Z,3.17
2022-10-05T05:26:30.119Z,3.45
2022-10-05T05:29:34.992Z,3.10
2022-10-05T05:32:14.641Z,3.55
2022-10-05T05:35:00.070Z,3.35
2022-10-05T05:37:32.961Z,3.45
2022-10-05T05:40:21.310Z,3.38
2022-10-05T05:43:15.025Z,4.20
2022-10-05T05:45:43.720Z,3.92
2022-10-05T05:48:26.466Z,3.67
2022-10-05T05:50:59.367Z,3.75
2022-10-05T05:53:32.297Z,3.90
2022-10-05T05:56:04.677Z,4.43
2022-10-05T05:58:34.419Z,4.05
2022-10-05T06:01:33.950Z,3.53
2022-10-05T06:04:22.203Z,4.00
2022-10-05T06:06:52.423Z,3.97
2022-10-05T06:09:31.286Z,3.95
2022-10-05T06:12:15.628Z,4.20
2022-10-05T06:14:56.823Z,3.40
2022-10-05T06:17:43.898Z,3.83
2022-10-05T06:20:28.096Z,3.67
2022-10-05T06:22:59.880Z,3.83
2022-10-05T06:25:42.617Z,3.95
2022-10-05T06:28:14.041Z,3.30
2022-10-05T06:31:05.229Z,3.97
2022-10-05T06:33:47.045Z,3.55
2022-10-05T06:36:39.732Z,3.53
2022-10-05T06:39:38.001Z,3.00
2022-10-05T06:42:13.809Z,4.00
2022-10-05T06:45:08.254Z,3.70
2022-10-05T06:48:05.575Z,3.88
2022-10-05T06:51:13.597Z,3.40
2022-10-05T06:54:18.533Z,3.67
2022-10-05T06:56:50.013Z,3.90
2022-10-05T06:59:25.757Z,3.50
2022-10-05T07:02:06.724Z,3.45
2022-10-05T07:05:12.487Z,3.42
2022-10-05T07:08:20.811Z,2.83
2022-10-05T07:10:59.802Z,3.00
2022-10-05T07:13:54.724Z,3.13
2022-10-05T07:16:47.934Z,3.10
2022-10-05T07:19:33.646Z,3.25
2022-10-05T07:22:39.710Z,3.10
2022-10-05T07:25:30.324Z,2.90
2022-10-05T07:28:06.066Z,2.80
2022-10-05T07:30:40.586Z,2.67
2022-10-05T07:33:31.697Z,2.78
2022-10-05T07:36:31.917Z,2.58
2022-10-05T07:39:11.887Z,2.72
2022-10-05T07:41:48.448Z,2.88
2022-10-05T07:44:30.037Z,2.42
2022-10-05T07:47:18.121Z,2.80
2022-10-05T07:50:05.999Z,2.35
2022-10-05T07:52:36.889Z,2.80
2022-10-05T07:55:26.190Z,3.10
2022-10-05T07:58:13.235Z,3.08
2022-10-05T08:00:59.708Z,2.22
2022-10-05T08:03:45.011Z,2.92
2022-10-05T08:06:24.606Z,2.47
2022-10-05T08:09:08.436Z,2.35
2022-10-05T08:11:52.468Z,2.28
2022-10-05T08:14:44.215Z,2.53
2022-10-05T08:17:21.670Z,2.42
2022-10-05T08:20:03.984Z,2.75
2022-10-05T08:22:38.286Z,2.50
2022-10-05T08:25:13.032Z,2.72
2022-10-05T08:27:50.862Z,2.00
2022-10-05T08:30:17.782Z,2.30
2022-10-05T08:33:03.385Z,2.00
2022-10-05T08:35:39.664Z,2.38
2022-10-05T08:38:31.237Z,2.40
2022-10-05T08:41:36.208Z,2.33
2022-10-05T08:44:09.190Z,2.17
2022-10-05T08:47:11.230Z,1.92
2022-10-05T08:49:46.926Z,1.60
2022-10-05T08:52:25.506Z,2.30
2022-10-05T08:55:10.539Z,2.15
2022-10-05T08:57:49.584Z,2.15
2022-10-05T09:00:22.001Z,2.22
2022-10-05T09:03:28.189Z,2.22
2022-10-05T09:06:16.826Z,1.98
2022-10-05T09:09:22.222Z,2.05
2022-10-05T09:12:27.817Z,2.20
2022-10-05T09:15:24.413Z,2.10
2022-10-05T09:18:29.349Z,2.10
2022-10-05T09:21:10.032Z,1.98
2022-10-05T09:23:39.985Z,2.75
2022-10-05T09:26:25.286Z,2.60
2022-10-05T09:29:07.302Z,2.28
2022-10-05T09:31:55.250Z,2.05
2022-10-05T09:34:37.197Z,2.10
2022-10-05T09:37:34.767Z,2.40
2022-10-05T09:40:37.510Z,2.08
2022-10-05T09:43:23.322Z,2.38
2022-10-05T09:46:29.500Z,2.47
2022-10-05T09:49:14.979Z,2.50
2022-10-05T09:52:19.145Z,2.20
2022-10-05T09:55:10.254Z,2.40
2022-10-05T09:57:39.981Z,2.50
2022-10-05T10:00:15.534Z,2.13
2022-10-05T10:03:02.562Z,2.00
2022-10-05T10:05:52.358Z,2.00
2022-10-05T10:08:43.805Z,1.83
2022-10-05T10:11:24.185Z,2.58
2022-10-05T10:14:14.474Z,2.50
2022-10-05T10:17:03.028Z,2.03
2022-10-05T10:20:07.296Z,2.20
2022-10-05T10:22:43.090Z,2.03
2022-10-05T10:25:35.061Z,2.38
2022-10-05T10:28:23.826Z,2.10
2022-10-05T10:31:16.950Z,1.90
2022-10-05T10:33:46.595Z,2.20
2022-10-05T10:36:33.925Z,2.50
2022-10-05T10:39:29.828Z,2.65
2022-10-05T10:42:07.210Z,2.33
2022-10-05T10:44:49.363Z,2.17
2022-10-05T10:47:28.782Z,2.53
2022-10-05T10:50:24.224Z,2.45
2022-10-05T10:53:10.529Z,2.38
2022-10-05T10:56:05.407Z,2.38
2022-10-05T10:58:51.839Z,2.30
2022-10-05T11:01:33.738Z,2.60
2022-10-05T11:04:07.714Z,2.40
2022-10-05T11:07:05.687Z,2.30
2022-10-05T11:09:53.605Z,2.28
2022-10-05T11:12:41.641Z,2.20
2022-10-05T11:15:20.705Z,2.25
2022-10-05T11:17:58.181Z,2.40
2022-10-05T11:20:42.326Z,2.25
2022-10-05T11:23:27.510Z,2.13
2022-10-05T11:26:16.140Z,2.20
2022-10-05T11:28:54.392Z,2.10
2022-10-05T11:31:31.285Z,1.85
2022-10-05T11:34:09.594Z,1.80
2022-10-05T11:36:42.256Z,1.83
2022-10-05T11:39:39.221Z,1.80
2022-10-05T11:42:23.909Z,1.70
2022-10-05T11:45:06.385Z,2.13
2022-10-05T11:47:40.714Z,1.90
2022-10-05T11:50:26.988Z,1.80
2022-10-05T11:53:04.493Z,1.90
2022-10-05T11:55:40.494Z,2.00
2022-10-05T11:58:51.276Z,1.75
2022-10-05T12:01:25.114Z,1.83
2022-10-05T12:04:16.827Z,1.95
2022-10-05T12:07:04.061Z,2.20
2022-10-05T12:10:02.860Z,1.70
2022-10-05T12:12:36.009Z,1.77
2022-10-05T12:15:27.135Z,1.80
2022-10-05T12:18:10.868Z,1.65
2022-10-05T12:20:46.900Z,1.80
2022-10-05T12:23:21.052Z,2.00
2022-10-05T12:25:51.414Z,1.95
2022-10-05T12:28:23.837Z,1.70
2022-10-05T12:31:13.908Z,1.90
2022-10-05T12:34:12.526Z,2.10
2022-10-05T12:37:06.456Z,1.70
2022-10-05T12:40:11.623Z,1.70
2022-10-05T12:42:47.799Z,1.70
2022-10-05T12:45:30.249Z,1.70
2022-10-05T12:48:02.302Z,1.75
2022-10-05T12:50:35.618Z,1.70
2022-10-05T12:53:11.400Z,1.48
2022-10-05T12:56:05.138Z,1.92
2022-10-05T12:58:48.937Z,1.50
2022-10-05T13:01:27.532Z,1.63
2022-10-05T13:04:22.332Z,1.48
2022-10-05T13:07:07.707Z,1.48
2022-10-05T13:09:43.143Z,1.52
2022-10-05T13:12:52.488Z,1.95
2022-10-05T13:15:20.550Z,1.67
2022-10-05T13:18:03.384Z,1.65
2022-10-05T13:20:47.618Z,1.92
2022-10-05T13:23:30.196Z,1.75
2022-10-05T13:26:04.145Z,1.55
2022-10-05T13:28:36.311Z,1.45
2022-10-05T13:31:07.300Z,1.70
2022-10-05T13:33:54.914Z,1.83
2022-10-05T13:36:53.082Z,1.60
2022-10-05T13:39:46.041Z,1.67
2022-10-05T13:42:19.665Z,1.60
2022-10-05T13:45:04.603Z,1.77
2022-10-05T13:48:06.760Z,1.83
2022-10-05T13:50:35.694Z,1.77
2022-10-05T13:53:43.287Z,1.70
2022-10-05T13:56:42.999Z,1.77
2022-10-05T13:59:43.866Z,1.98
2022-10-05T14:02:12.884Z,1.60
2022-10-05T14:04:51.085Z,1.70
2022-10-05T14:07:31.788Z,1.90
2022-10-05T14:09:59.797Z,1.88
2022-10-05T14:12:27.745Z,1.90
2022-10-05T14:14:57.441Z,2.00
2022-10-05T14:17:33.389Z,1.65
2022-10-05T14:20:01.366Z,1.70
2022-10-05T14:22:29.353Z,1.90
2022-10-05T14:25:03.244Z,1.85
2022-10-05T14:27:33.331Z,1.83
2022-10-05T14:30:19.590Z,1.92
2022-10-05T14:33:00.602Z,1.77
2022-10-05T14:35:32.776Z,1.80
2022-10-05T14:38:02.369Z,1.85
2022-10-05T14:40:38.145Z,1.70
2022-10-05T14:43:22.974Z,1.75
2022-10-05T14:45:55.922Z,2.00
2022-10-05T14:48:22.866Z,2.13
2022-10-05T14:50:59.497Z,1.95
2022-10-05T14:53:38.134Z,1.40
2022-10-05T14:56:17.745Z,1.60
2022-10-05T14:58:50.779Z,1.50
2022-10-05T15:01:26.724Z,1.70
2022-10-05T15:04:18.166Z,1.70
2022-10-05T15:07:04.104Z,1.35
2022-10-05T15:09:55.545Z,1.90
2022-10-05T15:12:29.811Z,2.05
2022-10-05T15:15:03.812Z,1.80
2022-10-05T15:17:41.198Z,2.03
2022-10-05T15:20:29.154Z,1.92
2022-10-05T15:23:24.999Z,1.70
2022-10-05T15:26:29.088Z,1.80
2022-10-05T15:28:55.966Z,1.95
2022-10-05T15:31:39.426Z,1.70
2022-10-05T15:34:30.741Z,1.80
2022-10-05T15:37:22.489Z,2.05
2022-10-05T15:39:58.400Z,1.70
2022-10-05T15:42:36.657Z,1.70
2022-10-05T15:45:15.810Z,2.22
2022-10-05T15:48:01.723Z,1.92
2022-10-05T15:50:57.070Z,2.20
2022-10-05T15:53:33.498Z,1.75
2022-10-05T15:56:04.851Z,1.77
2022-10-05T15:58:46.832Z,2.08
2022-10-05T16:01:20.864Z,2.67
2022-10-05T16:04:11.575Z,1.90
2022-10-05T16:07:01.986Z,1.90
2022-10-05T16:09:53.654Z,2.00
2022-10-05T16:12:29.271Z,1.95
2022-10-05T16:15:16.387Z,2.13
2022-10-05T16:18:00.957Z,2.05
2022-10-05T16:20:41.154Z,2.30
2022-10-05T16:23:48.004Z,2.20
2022-10-05T16:26:31.835Z,2.10
2022-10-05T16:29:11.944Z,2.10
2022-10-05T16:31:54.576Z,1.80
2022-10-05T16:34:45.630Z,2.28
2022-10-05T16:37:28.338Z,2.50
2022-10-05T16:40:00.752Z,2.15
2022-10-05T16:42:46.795Z,2.47
2022-10-05T16:45:16.582Z,2.30
2022-10-05T16:48:02.767Z,2.05
2022-10-05T16:51:07.702Z,1.98
2022-10-05T16:53:39.721Z,2.15
2022-10-05T16:56:11.366Z,2.05
2022-10-05T16:59:15.876Z,1.90
2022-10-05T17:02:03.315Z,2.20
2022-10-05T17:04:41.250Z,2.05
2022-10-05T17:07:39.475Z,2.53
2022-10-05T17:10:30.310Z,2.38
2022-10-05T17:13:03.176Z,2.20
2022-10-05T17:15:42.834Z,2.25
2022-10-05T17:18:27.951Z,2.13
2022-10-05T17:21:34.920Z,2.60
2022-10-05T17:24:24.875Z,3.05
2022-10-05T17:27:25.839Z,2.40
2022-10-05T17:29:55.879Z,2.80
2022-10-05T17:32:22.586Z,3.22
2022-10-05T17:35:01.612Z,2.78
2022-10-05T17:37:28.298Z,2.83
2022-10-05T17:39:55.980Z,3.25
2022-10-05T17:46:46.052Z,3.47
2022-10-05T17:49:34.141Z,3.40
2022-10-05T17:52:22.720Z,3.60
2022-10-05T17:55:08.684Z,3.70
2022-10-05T17:57:37.160Z,3.63
2022-10-05T18:00:06.066Z,4.05
2022-10-05T18:02:36.607Z,4.90
2022-10-05T18:05:12.302Z,4.43
2022-10-05T18:07:49.890Z,4.00
2022-10-05T18:10:29.344Z,4.68
2022-10-05T18:12:59.081Z,4.75
2022-10-05T18:15:25.905Z,4.40
2022-10-05T18:18:20.554Z,3.97
2022-10-05T18:21:18.553Z,3.95
2022-10-05T18:24:01.832Z,4.03
2022-10-05T18:26:52.409Z,3.70
2022-10-05T18:30:00.639Z,3.47
2022-10-05T18:32:52.162Z,3.92
2022-10-05T18:35:29.733Z,3.95
2022-10-05T18:38:06.047Z,3.45
2022-10-05T18:40:49.134Z,3.75
2022-10-05T18:43:56.496Z,3.70
2022-10-05T18:46:34.115Z,3.70
2022-10-05T18:49:19.245Z,3.60
2022-10-05T18:51:59.014Z,4.18
2022-10-05T18:54:40.967Z,4.00
2022-10-05T18:57:26.668Z,4.00
2022-10-05T19:00:23.788Z,4.35
2022-10-05T19:03:01.037Z,4.18
2022-10-05T19:05:49.119Z,3.90
2022-10-05T19:08:42.066Z,4.75
2022-10-05T19:11:29.987Z,4.63
2022-10-05T19:14:18.569Z,4.63
2022-10-05T19:16:51.771Z,4.60
2022-10-05T19:19:39.063Z,5.38
2022-10-05T19:22:15.083Z,4.88
2022-10-05T19:24:44.918Z,5.30
2022-10-05T19:27:28.199Z,4.85
2022-10-05T19:30:25.387Z,4.40
2022-10-05T19:33:22.917Z,4.72
2022-10-05T19:36:23.219Z,4.60
2022-10-05T19:39:08.218Z,4.97
2022-10-05T19:41:40.918Z,4.43
2022-10-05T19:44:10.707Z,4.80
2022-10-05T19:46:46.559Z,5.10
2022-10-05T19:49:36.280Z,4.97
2022-10-05T19:52:13.131Z,4.25
2022-10-05T19:54:41.935Z,4.80
2022-10-05T19:57:18.119Z,5.13
2022-10-05T19:59:46.802Z,4.70
2022-10-05T20:02:17.265Z,5.68
2022-10-05T20:04:46.039Z,4.90
2022-10-05T20:07:21.765Z,5.43
2022-10-05T20:09:52.328Z,5.07
2022-10-05T20:12:23.104Z,5.28
2022-10-05T20:15:24.399Z,5.38
2022-10-05T20:18:09.970Z,5.20
2022-10-05T20:20:47.166Z,5.18
2022-10-05T20:23:28.108Z,4.38
2022-10-05T20:26:13.460Z,5.68
2022-10-05T20:28:40.324Z,5.35
2022-10-05T20:31:08.256Z,5.32
2022-10-05T20:33:35.102Z,4.38
2022-10-05T20:36:03.851Z,3.88
2022-10-05T20:38:31.644Z,3.65
2022-10-05T20:40:58.705Z,3.55
2022-10-05T20:43:25.459Z,3.30
2022-10-05T20:45:52.373Z,3.50
2022-10-05T20:48:19.972Z,2.90
2022-10-05T20:50:47.417Z,2.90
2022-10-05T20:53:14.140Z,2.67
2022-10-05T20:55:40.968Z,2.90
2022-10-05T20:58:09.127Z,2.78
2022-10-05T21:00:54.494Z,2.55
2022-10-05T21:03:21.239Z,2.40
2022-10-05T21:05:48.013Z,2.60
2022-10-05T21:08:15.333Z,2.55
2022-10-05T21:10:42.036Z,2.47
2022-10-05T21:13:09.264Z,2.38
2022-10-05T21:15:36.095Z,2.47
2022-10-05T21:18:02.783Z,2.50
2022-10-05T21:20:29.470Z,2.30
2022-10-05T21:22:56.124Z,2.53
2022-10-05T21:25:22.816Z,2.20
2022-10-05T21:27:50.350Z,2.25
2022-10-05T21:30:17.126Z,2.45
2022-10-05T21:32:44.770Z,2.55
2022-10-05T21:35:11.662Z,2.20
2022-10-05T21:37:38.395Z,2.20
2022-10-05T21:40:05.435Z,2.20
2022-10-05T21:42:32.213Z,2.58
2022-10-05T21:44:59.007Z,2.40
2022-10-05T21:47:25.812Z,2.22
2022-10-05T21:49:52.548Z,2.10
2022-10-05T21:52:19.669Z,2.25
2022-10-05T21:54:47.019Z,2.20
2022-10-05T21:57:14.815Z,2.20
2022-10-05T21:59:42.275Z,2.70
2022-10-05T22:02:08.985Z,2.33
2022-10-05T22:04:35.675Z,2.30
2022-10-05T22:07:09.737Z,2.40
2022-10-05T22:09:36.403Z,2.15
2022-10-05T22:12:03.066Z,2.05
2022-10-05T22:14:29.735Z,2.42
2022-10-05T22:16:56.469Z,2.17
2022-10-05T22:19:23.166Z,2.33
2022-10-05T22:21:49.797Z,2.38
2022-10-05T22:24:16.449Z,2.40
2022-10-05T22:26:44.882Z,2.42
2022-10-05T22:29:11.964Z,2.08
2022-10-05T22:31:39.230Z,2.50
2022-10-05T22:34:06.042Z,2.28
2022-10-05T22:36:35.405Z,2.30
2022-10-05T22:39:02.085Z,2.00
2022-10-05T22:41:28.836Z,2.33
2022-10-05T22:43:55.453Z,2.20
2022-10-05T22:46:22.111Z,2.63
2022-10-05T22:48:48.784Z,2.60
2022-10-05T22:51:15.544Z,2.30
2022-10-05T22:53:42.248Z,2.35
2022-10-05T22:56:11.085Z,2.60
2022-10-05T22:58:38.097Z,2.28
2022-10-05T23:01:07.255Z,2.28
2022-10-05T23:03:34.605Z,2.25
2022-10-05T23:06:04.777Z,2.30
2022-10-05T23:08:32.714Z,2.30
2022-10-05T23:11:04.243Z,2.35
2022-10-05T23:13:31.092Z,2.40
2022-10-05T23:15:57.759Z,2.80
2022-10-05T23:18:24.546Z,2.58
2022-10-05T23:20:57.549Z,2.30
2022-10-05T23:23:24.246Z,2.58
2022-10-05T23:25:51.046Z,2.47
2022-10-05T23:28:17.760Z,2.42
2022-10-05T23:30:44.752Z,2.38
2022-10-05T23:33:11.441Z,2.50
2022-10-05T23:35:38.145Z,2.38
2022-10-05T23:38:04.947Z,2.63
2022-10-05T23:40:31.620Z,2.47
2022-10-05T23:42:58.648Z,2.50
2022-10-05T23:45:25.326Z,2.83
2022-10-05T23:47:51.959Z,2.28
2022-10-05T23:50:20.642Z,2.40
2022-10-05T23:52:47.288Z,2.50
2022-10-05T23:55:13.986Z,2.63
2022-10-05T23:57:40.665Z,2.90
